Ash Fork, AZ (86320)

7:26 AM MST on June 22, 2017 (GMT -0700)
Rural Coconino County AZ, 3 miles north of Ash Fork, AZ | | Change Station
Active Advisory: Heat Advisory

Elev 5410 ft 35.27 °N, 112.49 °W | Updated 31 seconds ago

Clear
Clear
79.5 °F
Feels Like 78 °F
N
0.0
Wind Variable Wind from ESE
Gusts 0.0 mph

Today
High -- | Low -- °F
--% Chance of Precip.
Yesterday
High -- | Low -- °F
Precip. -- in
Pressure 29.73 in
Visibility 10.0 miles
Clouds Clear
Heat Index 78 °F
Dew Point 35 °F
Humidity 20%
Rainfall 0.00 in
Snow Depth Not available.
5:16 AM 7:48 PM
Waning Crescent, 4% visible
METAR KPRC 221353Z 00000KT 10SM CLR 24/03 A3003 RMK AO2 SLP065 T02440028
Pressure 29.73 in
Visibility 10.0 miles
Clouds Clear
Heat Index 78 °F
Dew Point 35 °F
Humidity 20%
Rainfall 0.00 in
Snow Depth Not available.
5:16 AM 7:48 PM
Waning Crescent, 4% visible
METAR KPRC 221353Z 00000KT 10SM CLR 24/03 A3003 RMK AO2 SLP065 T02440028

Get Your Daily Forecast Email!

Thanks for signing up!

Be on the lookout for a verification email in your inbox.

You'll start receiving severe weather alerts in your inbox..

×

10-Day Weather Forecast

Almanac

Astronomy

Jun. 22, 2017 Rise Set
Actual Time
Civil Twilight
Nautical Twilight
Astronomical Twilight
Moon
Length of Visible Light
Length of Day
Tomorrow will be .
, % of the Moon is Illuminated

Today's Extremes

State Highs State Lows

Community

WunderPhotos

Category 6

Welcome to Category 6. This is the collective home for Weather Underground's featured writeups by Dr. Jeff Masters (right), Bob Henson (left), Chris Burt, and other regular contributors.

Nearby

Air Quality

  Air Quality AQ Index Pollutant
Not available.

Snow Depth

Station Depth Elevation

Earthquake Activity

City Distance Mag. Time & Date
Minimum magnitude displayed is 2.5.

Coastal Water Temperatures

Place Temperature

Stations

Nearby Weather Stations

Station Location Temp. Windchill Dew Point Humidity Wind Precip. Elev Updated Type
                   

Watches & Warnings

Heat Advisory
Issued: 2:10 AM MDT Jun. 22, 2017 – National Weather Service

... Heat advisory remains in effect until 8 PM MST this evening...

* affected area... Yavapai County mountains, Apache County,
Navajo County, and most of Coconino County.

* Temperature... low to mid 90s near 7000 feet, 102 to 109 degrees
across the lower terrain.

* Impacts... a prolonged period of hot temperatures is ongoing
and significantly increasing the potential for heat related
illness. Those without access to adequate air conditioning and
hydration are most at risk.

Precautionary/preparedness actions...

A heat advisory means that a period of hot temperatures is
expected and will create a situation in which heat illnesses are
possible. Drink plenty of fluids... stay in an air-conditioned
room... stay out of the sun... and check up on relatives and
neighbors.